sensor_id;sensor_type;location;lat;lon;timestamp;P1;durP1;ratioP1;P2;durP2;ratioP2
15067;SDS011;7633;60.024;18.770;2023-11-21T00:00:43;1.67;;;1.37;;
15067;SDS011;7633;60.024;18.770;2023-11-21T00:03:10;1.73;;;1.50;;
15067;SDS011;7633;60.024;18.770;2023-11-21T00:05:36;2.83;;;1.70;;
15067;SDS011;7633;60.024;18.770;2023-11-21T00:08:01;2.13;;;1.53;;
15067;SDS011;7633;60.024;18.770;2023-11-21T00:10:27;2.20;;;1.80;;
15067;SDS011;7633;60.024;18.770;2023-11-21T00:12:53;2.07;;;1.57;;
15067;SDS011;7633;60.024;18.770;2023-11-21T00:15:20;2.20;;;1.80;;
15067;SDS011;7633;60.024;18.770;2023-11-21T00:17:46;2.43;;;1.47;;
15067;SDS011;7633;60.024;18.770;2023-11-21T00:20:12;1.73;;;1.50;;
15067;SDS011;7633;60.024;18.770;2023-11-21T00:22:38;2.00;;;1.67;;
15067;SDS011;7633;60.024;18.770;2023-11-21T00:25:05;2.70;;;1.30;;
15067;SDS011;7633;60.024;18.770;2023-11-21T00:27:30;2.00;;;1.60;;
15067;SDS011;7633;60.024;18.770;2023-11-21T00:29:56;3.10;;;1.70;;
15067;SDS011;7633;60.024;18.770;2023-11-21T00:32:21;2.20;;;1.53;;
15067;SDS011;7633;60.024;18.770;2023-11-21T00:34:46;1.57;;;1.43;;
15067;SDS011;7633;60.024;18.770;2023-11-21T00:37:12;2.17;;;1.40;;
15067;SDS011;7633;60.024;18.770;2023-11-21T00:39:37;2.43;;;1.93;;
15067;SDS011;7633;60.024;18.770;2023-11-21T00:42:02;2.47;;;1.60;;
15067;SDS011;7633;60.024;18.770;2023-11-21T00:44:30;2.37;;;2.03;;
15067;SDS011;7633;60.024;18.770;2023-11-21T00:46:55;2.20;;;1.73;;
15067;SDS011;7633;60.024;18.770;2023-11-21T00:49:20;2.20;;;1.80;;
15067;SDS011;7633;60.024;18.770;2023-11-21T00:51:46;2.00;;;1.53;;
15067;SDS011;7633;60.024;18.770;2023-11-21T00:54:11;1.97;;;1.60;;
15067;SDS011;7633;60.024;18.770;2023-11-21T00:56:37;1.87;;;1.50;;
15067;SDS011;7633;60.024;18.770;2023-11-21T00:59:02;3.67;;;1.83;;
15067;SDS011;7633;60.024;18.770;2023-11-21T01:01:30;2.30;;;1.80;;
15067;SDS011;7633;60.024;18.770;2023-11-21T01:03:55;2.17;;;1.83;;
15067;SDS011;7633;60.024;18.770;2023-11-21T01:06:20;2.70;;;1.57;;
15067;SDS011;7633;60.024;18.770;2023-11-21T01:08:46;1.80;;;1.30;;
15067;SDS011;7633;60.024;18.770;2023-11-21T01:11:11;2.63;;;1.70;;
15067;SDS011;7633;60.024;18.770;2023-11-21T01:13:38;3.00;;;1.70;;
15067;SDS011;7633;60.024;18.770;2023-11-21T01:16:04;2.83;;;1.60;;
15067;SDS011;7633;60.024;18.770;2023-11-21T01:18:30;2.17;;;1.70;;
15067;SDS011;7633;60.024;18.770;2023-11-21T01:20:55;2.27;;;1.57;;
15067;SDS011;7633;60.024;18.770;2023-11-21T01:23:21;2.17;;;1.93;;
15067;SDS011;7633;60.024;18.770;2023-11-21T01:25:47;2.20;;;1.70;;
15067;SDS011;7633;60.024;18.770;2023-11-21T01:28:12;2.17;;;1.97;;
15067;SDS011;7633;60.024;18.770;2023-11-21T01:30:37;4.20;;;2.03;;
15067;SDS011;7633;60.024;18.770;2023-11-21T01:33:03;3.30;;;2.13;;
15067;SDS011;7633;60.024;18.770;2023-11-21T01:35:28;2.57;;;1.63;;
15067;SDS011;7633;60.024;18.770;2023-11-21T01:37:54;2.30;;;1.87;;
15067;SDS011;7633;60.024;18.770;2023-11-21T01:40:19;2.30;;;1.70;;
15067;SDS011;7633;60.024;18.770;2023-11-21T01:42:46;2.30;;;1.87;;
15067;SDS011;7633;60.024;18.770;2023-11-21T01:45:12;2.73;;;2.20;;
15067;SDS011;7633;60.024;18.770;2023-11-21T01:47:38;1.90;;;1.70;;
15067;SDS011;7633;60.024;18.770;2023-11-21T01:50:05;2.13;;;1.83;;
15067;SDS011;7633;60.024;18.770;2023-11-21T01:52:31;3.47;;;2.13;;
15067;SDS011;7633;60.024;18.770;2023-11-21T01:54:57;2.67;;;1.83;;
15067;SDS011;7633;60.024;18.770;2023-11-21T01:57:24;2.10;;;1.60;;
15067;SDS011;7633;60.024;18.770;2023-11-21T01:59:49;2.43;;;1.73;;
15067;SDS011;7633;60.024;18.770;2023-11-21T02:02:16;1.90;;;1.60;;
15067;SDS011;7633;60.024;18.770;2023-11-21T02:04:41;2.17;;;1.83;;
15067;SDS011;7633;60.024;18.770;2023-11-21T02:07:07;2.47;;;1.60;;
15067;SDS011;7633;60.024;18.770;2023-11-21T02:09:32;2.47;;;1.50;;
15067;SDS011;7633;60.024;18.770;2023-11-21T02:12:03;1.93;;;1.73;;
15067;SDS011;7633;60.024;18.770;2023-11-21T02:14:30;2.60;;;1.93;;
15067;SDS011;7633;60.024;18.770;2023-11-21T02:16:55;2.80;;;1.67;;
15067;SDS011;7633;60.024;18.770;2023-11-21T02:19:22;3.20;;;1.90;;
15067;SDS011;7633;60.024;18.770;2023-11-21T02:21:50;1.97;;;1.57;;
15067;SDS011;7633;60.024;18.770;2023-11-21T02:24:20;1.87;;;1.47;;
15067;SDS011;7633;60.024;18.770;2023-11-21T02:26:45;2.20;;;1.50;;
15067;SDS011;7633;60.024;18.770;2023-11-21T02:29:11;3.10;;;1.77;;
15067;SDS011;7633;60.024;18.770;2023-11-21T02:31:37;2.23;;;1.53;;
15067;SDS011;7633;60.024;18.770;2023-11-21T02:34:11;3.07;;;1.63;;
15067;SDS011;7633;60.024;18.770;2023-11-21T02:36:38;1.43;;;1.30;;
15067;SDS011;7633;60.024;18.770;2023-11-21T02:39:03;1.67;;;1.37;;
15067;SDS011;7633;60.024;18.770;2023-11-21T02:41:29;2.13;;;1.60;;
15067;SDS011;7633;60.024;18.770;2023-11-21T02:43:54;1.60;;;1.50;;
15067;SDS011;7633;60.024;18.770;2023-11-21T02:46:19;3.00;;;1.67;;
15067;SDS011;7633;60.024;18.770;2023-11-21T02:48:44;2.90;;;1.60;;
15067;SDS011;7633;60.024;18.770;2023-11-21T02:51:10;2.10;;;1.80;;
15067;SDS011;7633;60.024;18.770;2023-11-21T02:53:35;1.77;;;1.50;;
15067;SDS011;7633;60.024;18.770;2023-11-21T02:56:00;2.47;;;1.60;;
15067;SDS011;7633;60.024;18.770;2023-11-21T02:58:26;3.40;;;1.60;;
15067;SDS011;7633;60.024;18.770;2023-11-21T03:00:51;2.53;;;1.83;;
15067;SDS011;7633;60.024;18.770;2023-11-21T03:03:17;2.67;;;1.70;;
15067;SDS011;7633;60.024;18.770;2023-11-21T03:05:42;2.27;;;1.57;;
15067;SDS011;7633;60.024;18.770;2023-11-21T03:08:07;2.67;;;1.60;;
15067;SDS011;7633;60.024;18.770;2023-11-21T03:10:33;1.57;;;1.27;;
15067;SDS011;7633;60.024;18.770;2023-11-21T03:12:58;1.60;;;1.40;;
15067;SDS011;7633;60.024;18.770;2023-11-21T03:15:23;2.87;;;1.77;;
15067;SDS011;7633;60.024;18.770;2023-11-21T03:17:49;1.70;;;1.50;;
15067;SDS011;7633;60.024;18.770;2023-11-21T03:20:15;1.90;;;1.50;;
15067;SDS011;7633;60.024;18.770;2023-11-21T03:22:41;2.00;;;1.23;;
15067;SDS011;7633;60.024;18.770;2023-11-21T03:25:07;1.93;;;1.70;;
15067;SDS011;7633;60.024;18.770;2023-11-21T03:27:35;1.60;;;1.37;;
15067;SDS011;7633;60.024;18.770;2023-11-21T03:30:00;2.17;;;1.50;;
15067;SDS011;7633;60.024;18.770;2023-11-21T03:32:26;2.17;;;1.63;;
15067;SDS011;7633;60.024;18.770;2023-11-21T03:34:55;2.63;;;1.43;;
15067;SDS011;7633;60.024;18.770;2023-11-21T03:37:24;2.43;;;1.60;;
15067;SDS011;7633;60.024;18.770;2023-11-21T03:39:52;1.90;;;1.60;;
15067;SDS011;7633;60.024;18.770;2023-11-21T03:42:18;2.83;;;1.67;;
15067;SDS011;7633;60.024;18.770;2023-11-21T03:44:43;1.87;;;1.60;;
15067;SDS011;7633;60.024;18.770;2023-11-21T03:47:09;2.20;;;1.80;;
15067;SDS011;7633;60.024;18.770;2023-11-21T03:49:34;1.93;;;1.73;;
15067;SDS011;7633;60.024;18.770;2023-11-21T03:51:59;1.93;;;1.73;;
15067;SDS011;7633;60.024;18.770;2023-11-21T03:54:24;2.77;;;1.47;;
15067;SDS011;7633;60.024;18.770;2023-11-21T03:56:50;2.23;;;1.57;;
15067;SDS011;7633;60.024;18.770;2023-11-21T03:59:15;2.10;;;1.70;;
15067;SDS011;7633;60.024;18.770;2023-11-21T04:01:40;2.90;;;1.53;;
15067;SDS011;7633;60.024;18.770;2023-11-21T04:04:09;2.20;;;1.70;;
15067;SDS011;7633;60.024;18.770;2023-11-21T04:06:34;1.83;;;1.47;;
15067;SDS011;7633;60.024;18.770;2023-11-21T04:09:01;1.80;;;1.50;;
15067;SDS011;7633;60.024;18.770;2023-11-21T04:11:26;2.43;;;1.60;;
15067;SDS011;7633;60.024;18.770;2023-11-21T04:13:53;3.27;;;1.70;;
15067;SDS011;7633;60.024;18.770;2023-11-21T04:16:18;1.60;;;1.30;;
15067;SDS011;7633;60.024;18.770;2023-11-21T04:18:44;1.73;;;1.50;;
15067;SDS011;7633;60.024;18.770;2023-11-21T04:21:09;2.80;;;1.70;;
15067;SDS011;7633;60.024;18.770;2023-11-21T04:23:34;2.23;;;1.50;;
15067;SDS011;7633;60.024;18.770;2023-11-21T04:26:00;1.87;;;1.40;;
15067;SDS011;7633;60.024;18.770;2023-11-21T04:28:27;2.27;;;1.50;;
15067;SDS011;7633;60.024;18.770;2023-11-21T04:30:52;3.00;;;1.33;;
15067;SDS011;7633;60.024;18.770;2023-11-21T04:33:18;2.10;;;1.27;;
15067;SDS011;7633;60.024;18.770;2023-11-21T04:35:43;1.97;;;1.40;;
15067;SDS011;7633;60.024;18.770;2023-11-21T04:38:08;2.20;;;1.50;;
15067;SDS011;7633;60.024;18.770;2023-11-21T04:40:34;2.53;;;1.70;;
15067;SDS011;7633;60.024;18.770;2023-11-21T04:43:00;1.57;;;1.33;;
15067;SDS011;7633;60.024;18.770;2023-11-21T04:45:25;1.27;;;1.17;;
15067;SDS011;7633;60.024;18.770;2023-11-21T04:47:50;1.40;;;1.30;;
15067;SDS011;7633;60.024;18.770;2023-11-21T04:50:17;1.70;;;1.50;;
15067;SDS011;7633;60.024;18.770;2023-11-21T04:52:43;2.07;;;1.50;;
15067;SDS011;7633;60.024;18.770;2023-11-21T04:55:08;1.70;;;1.50;;
15067;SDS011;7633;60.024;18.770;2023-11-21T04:57:35;2.33;;;1.57;;
15067;SDS011;7633;60.024;18.770;2023-11-21T05:00:01;1.60;;;1.30;;
15067;SDS011;7633;60.024;18.770;2023-11-21T05:02:30;1.63;;;1.10;;
15067;SDS011;7633;60.024;18.770;2023-11-21T05:04:56;2.80;;;1.20;;
15067;SDS011;7633;60.024;18.770;2023-11-21T05:07:22;1.60;;;1.33;;
15067;SDS011;7633;60.024;18.770;2023-11-21T05:09:47;1.67;;;1.10;;
15067;SDS011;7633;60.024;18.770;2023-11-21T05:12:12;1.90;;;0.97;;
15067;SDS011;7633;60.024;18.770;2023-11-21T05:14:38;1.47;;;1.10;;
15067;SDS011;7633;60.024;18.770;2023-11-21T05:17:04;1.10;;;1.00;;
15067;SDS011;7633;60.024;18.770;2023-11-21T05:19:29;1.73;;;1.20;;
15067;SDS011;7633;60.024;18.770;2023-11-21T05:21:54;1.90;;;1.00;;
15067;SDS011;7633;60.024;18.770;2023-11-21T05:24:20;1.70;;;1.23;;
15067;SDS011;7633;60.024;18.770;2023-11-21T05:26:45;1.63;;;1.17;;
15067;SDS011;7633;60.024;18.770;2023-11-21T05:29:10;2.40;;;1.10;;
15067;SDS011;7633;60.024;18.770;2023-11-21T05:31:36;1.20;;;0.97;;
15067;SDS011;7633;60.024;18.770;2023-11-21T05:34:01;2.17;;;1.10;;
15067;SDS011;7633;60.024;18.770;2023-11-21T05:36:27;2.50;;;1.20;;
15067;SDS011;7633;60.024;18.770;2023-11-21T05:38:52;0.90;;;0.80;;
15067;SDS011;7633;60.024;18.770;2023-11-21T05:41:18;1.53;;;1.00;;
15067;SDS011;7633;60.024;18.770;2023-11-21T05:43:43;1.10;;;1.00;;
15067;SDS011;7633;60.024;18.770;2023-11-21T05:46:08;1.13;;;0.90;;
15067;SDS011;7633;60.024;18.770;2023-11-21T05:48:34;1.33;;;1.03;;
15067;SDS011;7633;60.024;18.770;2023-11-21T05:51:02;0.93;;;0.90;;
15067;SDS011;7633;60.024;18.770;2023-11-21T05:53:27;1.13;;;0.77;;
15067;SDS011;7633;60.024;18.770;2023-11-21T05:55:52;1.03;;;0.87;;
15067;SDS011;7633;60.024;18.770;2023-11-21T05:58:18;1.43;;;0.90;;
15067;SDS011;7633;60.024;18.770;2023-11-21T06:00:43;1.00;;;0.80;;
15067;SDS011;7633;60.024;18.770;2023-11-21T06:03:26;1.20;;;1.00;;
15067;SDS011;7633;60.024;18.770;2023-11-21T06:05:52;1.00;;;0.83;;
15067;SDS011;7633;60.024;18.770;2023-11-21T06:08:17;1.80;;;0.90;;
15067;SDS011;7633;60.024;18.770;2023-11-21T06:10:43;1.10;;;1.00;;
15067;SDS011;7633;60.024;18.770;2023-11-21T06:13:09;1.13;;;0.90;;
15067;SDS011;7633;60.024;18.770;2023-11-21T06:15:36;1.80;;;0.90;;
15067;SDS011;7633;60.024;18.770;2023-11-21T06:18:01;1.30;;;0.97;;
15067;SDS011;7633;60.024;18.770;2023-11-21T06:20:27;1.83;;;1.03;;
15067;SDS011;7633;60.024;18.770;2023-11-21T06:22:52;1.30;;;1.13;;
15067;SDS011;7633;60.024;18.770;2023-11-21T06:25:18;1.00;;;0.90;;
15067;SDS011;7633;60.024;18.770;2023-11-21T06:27:45;1.40;;;1.10;;
15067;SDS011;7633;60.024;18.770;2023-11-21T06:30:11;2.73;;;1.10;;
15067;SDS011;7633;60.024;18.770;2023-11-21T06:32:37;2.07;;;1.30;;
15067;SDS011;7633;60.024;18.770;2023-11-21T06:35:03;1.30;;;1.20;;
15067;SDS011;7633;60.024;18.770;2023-11-21T06:37:29;1.33;;;1.23;;
15067;SDS011;7633;60.024;18.770;2023-11-21T06:39:55;1.70;;;1.20;;
15067;SDS011;7633;60.024;18.770;2023-11-21T06:42:21;1.30;;;1.20;;
15067;SDS011;7633;60.024;18.770;2023-11-21T06:44:47;1.83;;;1.13;;
15067;SDS011;7633;60.024;18.770;2023-11-21T06:47:13;2.47;;;1.30;;
15067;SDS011;7633;60.024;18.770;2023-11-21T06:49:38;1.47;;;1.30;;
15067;SDS011;7633;60.024;18.770;2023-11-21T06:52:04;1.80;;;1.67;;
15067;SDS011;7633;60.024;18.770;2023-11-21T06:54:30;1.50;;;1.27;;
15067;SDS011;7633;60.024;18.770;2023-11-21T06:56:56;1.60;;;1.50;;
15067;SDS011;7633;60.024;18.770;2023-11-21T06:59:21;1.97;;;1.43;;
15067;SDS011;7633;60.024;18.770;2023-11-21T07:01:47;1.40;;;1.30;;
15067;SDS011;7633;60.024;18.770;2023-11-21T07:04:12;2.00;;;1.77;;
15067;SDS011;7633;60.024;18.770;2023-11-21T07:06:37;2.67;;;1.93;;
15067;SDS011;7633;60.024;18.770;2023-11-21T07:09:03;2.13;;;1.67;;
15067;SDS011;7633;60.024;18.770;2023-11-21T07:11:33;2.33;;;2.00;;
15067;SDS011;7633;60.024;18.770;2023-11-21T07:13:59;3.77;;;2.00;;
15067;SDS011;7633;60.024;18.770;2023-11-21T07:16:24;2.47;;;2.07;;
15067;SDS011;7633;60.024;18.770;2023-11-21T07:18:50;2.10;;;1.90;;
15067;SDS011;7633;60.024;18.770;2023-11-21T07:21:15;2.13;;;1.93;;
15067;SDS011;7633;60.024;18.770;2023-11-21T07:23:41;3.57;;;2.20;;
15067;SDS011;7633;60.024;18.770;2023-11-21T07:26:06;2.43;;;2.10;;
15067;SDS011;7633;60.024;18.770;2023-11-21T07:28:35;2.47;;;2.03;;
15067;SDS011;7633;60.024;18.770;2023-11-21T07:31:01;3.00;;;2.00;;
15067;SDS011;7633;60.024;18.770;2023-11-21T07:33:26;1.83;;;1.63;;
15067;SDS011;7633;60.024;18.770;2023-11-21T07:35:52;3.00;;;2.20;;
15067;SDS011;7633;60.024;18.770;2023-11-21T07:38:17;1.97;;;1.70;;
15067;SDS011;7633;60.024;18.770;2023-11-21T07:40:43;2.40;;;2.00;;
15067;SDS011;7633;60.024;18.770;2023-11-21T07:43:08;2.90;;;2.00;;
15067;SDS011;7633;60.024;18.770;2023-11-21T07:45:34;2.23;;;1.87;;
15067;SDS011;7633;60.024;18.770;2023-11-21T07:47:59;2.13;;;1.90;;
15067;SDS011;7633;60.024;18.770;2023-11-21T07:50:25;2.10;;;1.70;;
15067;SDS011;7633;60.024;18.770;2023-11-21T07:52:51;3.83;;;1.97;;
15067;SDS011;7633;60.024;18.770;2023-11-21T07:55:19;2.50;;;1.90;;
15067;SDS011;7633;60.024;18.770;2023-11-21T07:57:47;2.60;;;1.57;;
15067;SDS011;7633;60.024;18.770;2023-11-21T08:00:13;2.23;;;1.70;;
15067;SDS011;7633;60.024;18.770;2023-11-21T08:02:40;2.37;;;1.80;;
15067;SDS011;7633;60.024;18.770;2023-11-21T08:05:11;2.83;;;1.50;;
15067;SDS011;7633;60.024;18.770;2023-11-21T08:07:36;2.47;;;1.70;;
15067;SDS011;7633;60.024;18.770;2023-11-21T08:10:05;2.40;;;1.70;;
15067;SDS011;7633;60.024;18.770;2023-11-21T08:12:30;3.07;;;1.83;;
15067;SDS011;7633;60.024;18.770;2023-11-21T08:14:56;2.43;;;1.57;;
15067;SDS011;7633;60.024;18.770;2023-11-21T08:17:21;3.40;;;1.90;;
15067;SDS011;7633;60.024;18.770;2023-11-21T08:19:46;2.97;;;1.97;;
15067;SDS011;7633;60.024;18.770;2023-11-21T08:22:15;1.70;;;1.60;;
15067;SDS011;7633;60.024;18.770;2023-11-21T08:24:41;2.20;;;1.77;;
15067;SDS011;7633;60.024;18.770;2023-11-21T08:27:12;2.53;;;1.97;;
15067;SDS011;7633;60.024;18.770;2023-11-21T08:29:41;1.73;;;1.53;;
15067;SDS011;7633;60.024;18.770;2023-11-21T08:32:07;3.63;;;2.47;;
15067;SDS011;7633;60.024;18.770;2023-11-21T08:34:32;1.47;;;1.37;;
15067;SDS011;7633;60.024;18.770;2023-11-21T08:36:58;2.80;;;1.33;;
15067;SDS011;7633;60.024;18.770;2023-11-21T08:39:23;1.90;;;1.67;;
15067;SDS011;7633;60.024;18.770;2023-11-21T08:41:49;1.93;;;1.47;;
15067;SDS011;7633;60.024;18.770;2023-11-21T08:44:15;1.50;;;1.20;;
15067;SDS011;7633;60.024;18.770;2023-11-21T08:46:43;1.30;;;1.20;;
15067;SDS011;7633;60.024;18.770;2023-11-21T08:49:10;1.73;;;1.63;;
15067;SDS011;7633;60.024;18.770;2023-11-21T08:51:36;2.00;;;1.83;;
15067;SDS011;7633;60.024;18.770;2023-11-21T08:54:02;2.03;;;1.40;;
15067;SDS011;7633;60.024;18.770;2023-11-21T08:56:29;1.53;;;1.43;;
15067;SDS011;7633;60.024;18.770;2023-11-21T08:58:54;1.80;;;1.60;;
15067;SDS011;7633;60.024;18.770;2023-11-21T09:01:20;1.53;;;1.10;;
15067;SDS011;7633;60.024;18.770;2023-11-21T09:03:46;1.23;;;1.10;;
15067;SDS011;7633;60.024;18.770;2023-11-21T09:06:12;1.90;;;1.40;;
15067;SDS011;7633;60.024;18.770;2023-11-21T09:08:39;1.53;;;1.43;;
15067;SDS011;7633;60.024;18.770;2023-11-21T09:11:04;2.07;;;1.30;;
15067;SDS011;7633;60.024;18.770;2023-11-21T09:13:30;1.30;;;1.20;;
15067;SDS011;7633;60.024;18.770;2023-11-21T09:15:56;1.73;;;1.30;;
15067;SDS011;7633;60.024;18.770;2023-11-21T09:18:21;1.43;;;1.33;;
15067;SDS011;7633;60.024;18.770;2023-11-21T09:20:46;1.20;;;1.10;;
15067;SDS011;7633;60.024;18.770;2023-11-21T09:23:12;1.30;;;1.20;;
15067;SDS011;7633;60.024;18.770;2023-11-21T09:25:37;1.30;;;1.20;;
15067;SDS011;7633;60.024;18.770;2023-11-21T09:28:06;1.97;;;1.00;;
15067;SDS011;7633;60.024;18.770;2023-11-21T09:30:37;1.20;;;0.87;;
15067;SDS011;7633;60.024;18.770;2023-11-21T09:33:03;1.47;;;0.90;;
15067;SDS011;7633;60.024;18.770;2023-11-21T09:35:30;1.00;;;0.83;;
15067;SDS011;7633;60.024;18.770;2023-11-21T09:37:55;1.10;;;0.80;;
15067;SDS011;7633;60.024;18.770;2023-11-21T09:40:21;0.80;;;0.80;;
15067;SDS011;7633;60.024;18.770;2023-11-21T09:42:57;1.00;;;0.90;;
15067;SDS011;7633;60.024;18.770;2023-11-21T09:45:28;1.10;;;0.87;;
15067;SDS011;7633;60.024;18.770;2023-11-21T09:47:56;0.70;;;0.70;;
15067;SDS011;7633;60.024;18.770;2023-11-21T09:50:22;1.00;;;0.80;;
15067;SDS011;7633;60.024;18.770;2023-11-21T09:55:34;1.13;;;0.70;;
15067;SDS011;7633;60.024;18.770;2023-11-21T09:58:02;1.43;;;0.70;;
15067;SDS011;7633;60.024;18.770;2023-11-21T10:00:28;0.93;;;0.80;;
15067;SDS011;7633;60.024;18.770;2023-11-21T10:02:53;0.70;;;0.60;;
15067;SDS011;7633;60.024;18.770;2023-11-21T10:05:19;1.07;;;0.80;;
15067;SDS011;7633;60.024;18.770;2023-11-21T10:07:44;0.60;;;0.60;;
15067;SDS011;7633;60.024;18.770;2023-11-21T10:10:11;0.40;;;0.40;;
15067;SDS011;7633;60.024;18.770;2023-11-21T10:12:38;1.17;;;0.50;;
15067;SDS011;7633;60.024;18.770;2023-11-21T10:15:07;1.07;;;0.80;;
15067;SDS011;7633;60.024;18.770;2023-11-21T10:17:35;1.67;;;0.90;;
15067;SDS011;7633;60.024;18.770;2023-11-21T10:20:08;1.47;;;0.70;;
15067;SDS011;7633;60.024;18.770;2023-11-21T10:22:40;1.50;;;1.33;;
15067;SDS011;7633;60.024;18.770;2023-11-21T10:25:12;1.30;;;1.20;;
15067;SDS011;7633;60.024;18.770;2023-11-21T10:27:39;0.60;;;0.60;;
15067;SDS011;7633;60.024;18.770;2023-11-21T10:30:06;0.90;;;0.80;;
15067;SDS011;7633;60.024;18.770;2023-11-21T10:32:33;0.73;;;0.63;;
15067;SDS011;7633;60.024;18.770;2023-11-21T10:34:59;0.67;;;0.63;;
15067;SDS011;7633;60.024;18.770;2023-11-21T10:37:32;0.65;;;0.65;;
15067;SDS011;7633;60.024;18.770;2023-11-21T10:39:58;0.57;;;0.57;;
15067;SDS011;7633;60.024;18.770;2023-11-21T10:42:24;0.87;;;0.87;;
15067;SDS011;7633;60.024;18.770;2023-11-21T10:44:49;0.70;;;0.70;;
15067;SDS011;7633;60.024;18.770;2023-11-21T10:47:15;0.70;;;0.60;;
15067;SDS011;7633;60.024;18.770;2023-11-21T10:49:41;0.67;;;0.67;;
15067;SDS011;7633;60.024;18.770;2023-11-21T10:52:06;1.15;;;1.00;;
15067;SDS011;7633;60.024;18.770;2023-11-21T10:54:31;0.70;;;0.70;;
15067;SDS011;7633;60.024;18.770;2023-11-21T10:56:58;0.60;;;0.57;;
15067;SDS011;7633;60.024;18.770;2023-11-21T10:59:25;0.88;;;0.88;;
15067;SDS011;7633;60.024;18.770;2023-11-21T11:01:53;1.15;;;1.05;;
15067;SDS011;7633;60.024;18.770;2023-11-21T11:04:19;0.70;;;0.70;;
15067;SDS011;7633;60.024;18.770;2023-11-21T11:06:44;0.75;;;0.70;;
15067;SDS011;7633;60.024;18.770;2023-11-21T11:09:11;0.70;;;0.70;;
15067;SDS011;7633;60.024;18.770;2023-11-21T11:11:39;0.85;;;0.82;;
15067;SDS011;7633;60.024;18.770;2023-11-21T11:14:06;0.65;;;0.65;;
15067;SDS011;7633;60.024;18.770;2023-11-21T11:16:32;0.73;;;0.70;;
15067;SDS011;7633;60.024;18.770;2023-11-21T11:18:57;0.93;;;0.65;;
15067;SDS011;7633;60.024;18.770;2023-11-21T11:21:26;0.70;;;0.55;;
15067;SDS011;7633;60.024;18.770;2023-11-21T11:26:56;0.70;;;0.70;;
15067;SDS011;7633;60.024;18.770;2023-11-21T11:34:35;0.90;;;0.90;;
15067;SDS011;7633;60.024;18.770;2023-11-21T11:37:06;0.98;;;0.88;;
15067;SDS011;7633;60.024;18.770;2023-11-21T11:39:42;1.30;;;1.00;;
15067;SDS011;7633;60.024;18.770;2023-11-21T11:42:14;1.00;;;0.90;;
15067;SDS011;7633;60.024;18.770;2023-11-21T11:47:15;0.97;;;0.90;;
15067;SDS011;7633;60.024;18.770;2023-11-21T11:52:32;1.23;;;0.90;;
15067;SDS011;7633;60.024;18.770;2023-11-21T11:54:57;0.83;;;0.83;;
15067;SDS011;7633;60.024;18.770;2023-11-21T11:57:24;0.90;;;0.80;;
15067;SDS011;7633;60.024;18.770;2023-11-21T12:00:11;0.90;;;0.80;;
15067;SDS011;7633;60.024;18.770;2023-11-21T12:02:36;1.30;;;0.90;;
15067;SDS011;7633;60.024;18.770;2023-11-21T12:05:06;0.80;;;0.70;;
15067;SDS011;7633;60.024;18.770;2023-11-21T12:07:48;1.13;;;0.90;;
15067;SDS011;7633;60.024;18.770;2023-11-21T12:10:17;1.20;;;0.80;;
15067;SDS011;7633;60.024;18.770;2023-11-21T12:12:47;0.80;;;0.70;;
15067;SDS011;7633;60.024;18.770;2023-11-21T12:15:13;0.90;;;0.80;;
15067;SDS011;7633;60.024;18.770;2023-11-21T12:17:39;1.40;;;0.80;;
15067;SDS011;7633;60.024;18.770;2023-11-21T12:20:05;0.80;;;0.80;;
15067;SDS011;7633;60.024;18.770;2023-11-21T12:22:43;0.80;;;0.70;;
15067;SDS011;7633;60.024;18.770;2023-11-21T12:25:09;0.97;;;0.73;;
15067;SDS011;7633;60.024;18.770;2023-11-21T12:27:34;1.17;;;0.90;;
15067;SDS011;7633;60.024;18.770;2023-11-21T12:30:00;0.77;;;0.77;;
15067;SDS011;7633;60.024;18.770;2023-11-21T12:32:25;0.50;;;0.50;;
15067;SDS011;7633;60.024;18.770;2023-11-21T12:34:51;0.80;;;0.80;;
15067;SDS011;7633;60.024;18.770;2023-11-21T12:37:17;1.63;;;0.70;;
15067;SDS011;7633;60.024;18.770;2023-11-21T12:39:42;1.50;;;0.70;;
15067;SDS011;7633;60.024;18.770;2023-11-21T12:42:08;0.50;;;0.50;;
15067;SDS011;7633;60.024;18.770;2023-11-21T12:44:34;0.70;;;0.70;;
15067;SDS011;7633;60.024;18.770;2023-11-21T12:46:59;0.50;;;0.50;;
15067;SDS011;7633;60.024;18.770;2023-11-21T12:49:24;0.70;;;0.50;;
15067;SDS011;7633;60.024;18.770;2023-11-21T12:51:50;1.70;;;0.63;;
15067;SDS011;7633;60.024;18.770;2023-11-21T12:54:15;0.70;;;0.70;;
15067;SDS011;7633;60.024;18.770;2023-11-21T12:56:44;0.60;;;0.60;;
15067;SDS011;7633;60.024;18.770;2023-11-21T12:59:12;0.70;;;0.60;;
15067;SDS011;7633;60.024;18.770;2023-11-21T13:01:41;0.80;;;0.63;;
15067;SDS011;7633;60.024;18.770;2023-11-21T13:04:07;0.43;;;0.33;;
15067;SDS011;7633;60.024;18.770;2023-11-21T13:06:32;0.63;;;0.63;;
15067;SDS011;7633;60.024;18.770;2023-11-21T13:09:03;0.60;;;0.60;;
15067;SDS011;7633;60.024;18.770;2023-11-21T13:11:30;0.70;;;0.60;;
15067;SDS011;7633;60.024;18.770;2023-11-21T13:13:59;0.47;;;0.47;;
15067;SDS011;7633;60.024;18.770;2023-11-21T13:16:25;1.23;;;0.60;;
15067;SDS011;7633;60.024;18.770;2023-11-21T13:18:51;0.50;;;0.50;;
15067;SDS011;7633;60.024;18.770;2023-11-21T13:21:17;0.77;;;0.60;;
15067;SDS011;7633;60.024;18.770;2023-11-21T13:23:43;0.60;;;0.60;;
15067;SDS011;7633;60.024;18.770;2023-11-21T13:26:10;1.33;;;0.70;;
15067;SDS011;7633;60.024;18.770;2023-11-21T13:28:36;0.70;;;0.63;;
15067;SDS011;7633;60.024;18.770;2023-11-21T13:31:03;0.80;;;0.60;;
15067;SDS011;7633;60.024;18.770;2023-11-21T13:33:35;1.40;;;0.60;;
15067;SDS011;7633;60.024;18.770;2023-11-21T13:36:02;0.60;;;0.60;;
15067;SDS011;7633;60.024;18.770;2023-11-21T13:38:32;0.67;;;0.60;;
15067;SDS011;7633;60.024;18.770;2023-11-21T13:40:58;1.17;;;0.87;;
15067;SDS011;7633;60.024;18.770;2023-11-21T13:43:24;1.17;;;1.07;;
15067;SDS011;7633;60.024;18.770;2023-11-21T13:45:51;1.07;;;0.53;;
15067;SDS011;7633;60.024;18.770;2023-11-21T13:48:20;0.60;;;0.60;;
15067;SDS011;7633;60.024;18.770;2023-11-21T13:50:53;0.47;;;0.47;;
15067;SDS011;7633;60.024;18.770;2023-11-21T13:53:26;0.57;;;0.50;;
15067;SDS011;7633;60.024;18.770;2023-11-21T13:55:54;0.60;;;0.60;;
15067;SDS011;7633;60.024;18.770;2023-11-21T13:58:20;0.63;;;0.50;;
15067;SDS011;7633;60.024;18.770;2023-11-21T14:00:49;0.80;;;0.50;;
15067;SDS011;7633;60.024;18.770;2023-11-21T14:03:22;1.00;;;0.80;;
15067;SDS011;7633;60.024;18.770;2023-11-21T14:05:48;0.50;;;0.50;;
15067;SDS011;7633;60.024;18.770;2023-11-21T14:08:22;0.60;;;0.60;;
15067;SDS011;7633;60.024;18.770;2023-11-21T14:10:53;0.70;;;0.60;;
15067;SDS011;7633;60.024;18.770;2023-11-21T14:13:26;1.27;;;0.53;;
15067;SDS011;7633;60.024;18.770;2023-11-21T14:15:52;0.93;;;0.63;;
15067;SDS011;7633;60.024;18.770;2023-11-21T14:18:25;0.40;;;0.40;;
15067;SDS011;7633;60.024;18.770;2023-11-21T14:20:56;0.50;;;0.50;;
15067;SDS011;7633;60.024;18.770;2023-11-21T14:23:22;0.50;;;0.50;;
15067;SDS011;7633;60.024;18.770;2023-11-21T14:25:48;1.63;;;0.80;;
15067;SDS011;7633;60.024;18.770;2023-11-21T14:28:15;0.63;;;0.63;;
15067;SDS011;7633;60.024;18.770;2023-11-21T14:30:40;0.70;;;0.60;;
15067;SDS011;7633;60.024;18.770;2023-11-21T14:33:07;1.43;;;0.77;;
15067;SDS011;7633;60.024;18.770;2023-11-21T14:35:36;1.33;;;0.90;;
15067;SDS011;7633;60.024;18.770;2023-11-21T14:38:04;1.03;;;0.67;;
15067;SDS011;7633;60.024;18.770;2023-11-21T14:40:31;1.20;;;0.53;;
15067;SDS011;7633;60.024;18.770;2023-11-21T14:43:02;0.70;;;0.60;;
15067;SDS011;7633;60.024;18.770;2023-11-21T14:45:32;0.80;;;0.67;;
15067;SDS011;7633;60.024;18.770;2023-11-21T14:47:57;0.60;;;0.50;;
15067;SDS011;7633;60.024;18.770;2023-11-21T14:50:40;0.47;;;0.47;;
15067;SDS011;7633;60.024;18.770;2023-11-21T14:53:34;0.50;;;0.47;;
15067;SDS011;7633;60.024;18.770;2023-11-21T14:56:19;0.50;;;0.50;;
15067;SDS011;7633;60.024;18.770;2023-11-21T14:58:51;0.80;;;0.70;;
15067;SDS011;7633;60.024;18.770;2023-11-21T15:01:17;1.13;;;0.60;;